sensor_id;sensor_type;location;lat;lon;timestamp;pressure;altitude;pressure_sealevel;temperature;humidity
10978;BME280;5542;48.272;10.794;2023-11-19T00:01:26;95698.88;;;6.42;100.00
10978;BME280;5542;48.272;10.794;2023-11-19T00:03:52;95694.22;;;6.31;100.00
10978;BME280;5542;48.272;10.794;2023-11-19T00:06:19;95697.03;;;6.36;100.00
10978;BME280;5542;48.272;10.794;2023-11-19T00:08:45;95698.63;;;6.50;100.00
10978;BME280;5542;48.272;10.794;2023-11-19T00:11:13;95694.66;;;6.41;100.00
10978;BME280;5542;48.272;10.794;2023-11-19T00:13:41;95689.81;;;6.45;100.00
10978;BME280;5542;48.272;10.794;2023-11-19T00:16:08;95686.22;;;6.32;100.00
10978;BME280;5542;48.272;10.794;2023-11-19T00:18:35;95682.97;;;6.44;100.00
10978;BME280;5542;48.272;10.794;2023-11-19T00:21:02;95682.19;;;6.36;100.00
10978;BME280;5542;48.272;10.794;2023-11-19T00:23:29;95686.59;;;6.36;100.00
10978;BME280;5542;48.272;10.794;2023-11-19T00:25:55;95677.75;;;6.44;100.00
10978;BME280;5542;48.272;10.794;2023-11-19T00:28:23;95672.72;;;6.49;100.00
10978;BME280;5542;48.272;10.794;2023-11-19T00:30:49;95676.56;;;6.39;100.00
10978;BME280;5542;48.272;10.794;2023-11-19T00:33:16;95668.69;;;6.53;100.00
10978;BME280;5542;48.272;10.794;2023-11-19T00:35:42;95661.47;;;6.48;100.00
10978;BME280;5542;48.272;10.794;2023-11-19T00:38:09;95651.22;;;6.53;100.00
10978;BME280;5542;48.272;10.794;2023-11-19T00:40:36;95651.63;;;6.57;100.00
10978;BME280;5542;48.272;10.794;2023-11-19T00:43:02;95651.78;;;6.68;100.00
10978;BME280;5542;48.272;10.794;2023-11-19T00:45:30;95652.81;;;6.61;100.00
10978;BME280;5542;48.272;10.794;2023-11-19T00:47:56;95645.94;;;6.73;100.00
10978;BME280;5542;48.272;10.794;2023-11-19T00:50:24;95640.16;;;6.58;100.00
10978;BME280;5542;48.272;10.794;2023-11-19T00:52:50;95633.09;;;6.65;100.00
10978;BME280;5542;48.272;10.794;2023-11-19T00:55:16;95625.25;;;6.65;100.00
10978;BME280;5542;48.272;10.794;2023-11-19T00:57:43;95633.91;;;6.65;100.00
10978;BME280;5542;48.272;10.794;2023-11-19T01:00:10;95627.88;;;6.58;100.00
10978;BME280;5542;48.272;10.794;2023-11-19T01:02:45;95636.69;;;6.71;100.00
10978;BME280;5542;48.272;10.794;2023-11-19T01:05:11;95625.19;;;6.78;100.00
10978;BME280;5542;48.272;10.794;2023-11-19T01:07:40;95638.25;;;6.78;100.00
10978;BME280;5542;48.272;10.794;2023-11-19T01:10:07;95637.06;;;6.81;100.00
10978;BME280;5542;48.272;10.794;2023-11-19T01:12:33;95622.72;;;6.97;100.00
10978;BME280;5542;48.272;10.794;2023-11-19T01:15:00;95624.94;;;6.93;100.00
10978;BME280;5542;48.272;10.794;2023-11-19T01:17:27;95627.38;;;6.95;100.00
10978;BME280;5542;48.272;10.794;2023-11-19T01:19:55;95633.00;;;6.98;100.00
10978;BME280;5542;48.272;10.794;2023-11-19T01:22:21;95613.28;;;6.96;100.00
10978;BME280;5542;48.272;10.794;2023-11-19T01:24:46;95627.50;;;7.06;100.00
10978;BME280;5542;48.272;10.794;2023-11-19T01:27:13;95621.81;;;7.16;100.00
10978;BME280;5542;48.272;10.794;2023-11-19T01:29:39;95628.63;;;7.24;100.00
10978;BME280;5542;48.272;10.794;2023-11-19T01:32:08;95606.53;;;7.19;100.00
10978;BME280;5542;48.272;10.794;2023-11-19T01:34:34;95620.63;;;7.18;100.00
10978;BME280;5542;48.272;10.794;2023-11-19T01:37:02;95606.34;;;7.14;100.00
10978;BME280;5542;48.272;10.794;2023-11-19T01:39:29;95608.50;;;7.24;100.00
10978;BME280;5542;48.272;10.794;2023-11-19T01:41:55;95611.69;;;7.26;100.00
10978;BME280;5542;48.272;10.794;2023-11-19T01:44:22;95603.84;;;7.26;100.00
10978;BME280;5542;48.272;10.794;2023-11-19T01:46:48;95603.44;;;7.29;100.00
10978;BME280;5542;48.272;10.794;2023-11-19T01:49:15;95597.38;;;7.35;100.00
10978;BME280;5542;48.272;10.794;2023-11-19T01:51:43;95595.13;;;7.39;100.00
10978;BME280;5542;48.272;10.794;2023-11-19T01:54:12;95591.72;;;7.38;100.00
10978;BME280;5542;48.272;10.794;2023-11-19T01:56:40;95590.69;;;7.46;100.00
10978;BME280;5542;48.272;10.794;2023-11-19T01:59:07;95578.59;;;7.45;100.00
10978;BME280;5542;48.272;10.794;2023-11-19T02:01:36;95576.03;;;7.38;100.00
10978;BME280;5542;48.272;10.794;2023-11-19T02:04:05;95558.09;;;7.42;100.00
10978;BME280;5542;48.272;10.794;2023-11-19T02:06:32;95566.31;;;7.46;100.00
10978;BME280;5542;48.272;10.794;2023-11-19T02:08:59;95564.28;;;7.48;100.00
10978;BME280;5542;48.272;10.794;2023-11-19T02:11:29;95573.63;;;7.37;100.00
10978;BME280;5542;48.272;10.794;2023-11-19T02:13:55;95563.91;;;7.44;100.00
10978;BME280;5542;48.272;10.794;2023-11-19T02:16:23;95565.88;;;7.49;100.00
10978;BME280;5542;48.272;10.794;2023-11-19T02:18:49;95560.06;;;7.47;100.00
10978;BME280;5542;48.272;10.794;2023-11-19T02:21:16;95565.84;;;7.55;100.00
10978;BME280;5542;48.272;10.794;2023-11-19T02:23:43;95549.59;;;7.47;100.00
10978;BME280;5542;48.272;10.794;2023-11-19T02:26:14;95549.13;;;7.56;100.00
10978;BME280;5542;48.272;10.794;2023-11-19T02:28:45;95538.44;;;7.58;100.00
10978;BME280;5542;48.272;10.794;2023-11-19T02:31:11;95535.97;;;7.63;100.00
10978;BME280;5542;48.272;10.794;2023-11-19T02:33:38;95530.16;;;7.61;100.00
10978;BME280;5542;48.272;10.794;2023-11-19T02:36:06;95522.69;;;7.64;100.00
10978;BME280;5542;48.272;10.794;2023-11-19T02:38:33;95521.94;;;7.57;100.00
10978;BME280;5542;48.272;10.794;2023-11-19T02:41:00;95526.78;;;7.54;100.00
10978;BME280;5542;48.272;10.794;2023-11-19T02:43:27;95504.63;;;7.56;100.00
10978;BME280;5542;48.272;10.794;2023-11-19T02:45:55;95513.28;;;7.57;100.00
10978;BME280;5542;48.272;10.794;2023-11-19T02:48:21;95512.22;;;7.64;100.00
10978;BME280;5542;48.272;10.794;2023-11-19T02:50:48;95507.25;;;7.56;100.00
10978;BME280;5542;48.272;10.794;2023-11-19T02:53:14;95519.47;;;7.62;100.00
10978;BME280;5542;48.272;10.794;2023-11-19T02:55:41;95517.53;;;7.76;100.00
10978;BME280;5542;48.272;10.794;2023-11-19T02:58:13;95511.41;;;7.64;100.00
10978;BME280;5542;48.272;10.794;2023-11-19T03:00:45;95516.47;;;7.84;100.00
10978;BME280;5542;48.272;10.794;2023-11-19T03:03:18;95504.59;;;7.81;100.00
10978;BME280;5542;48.272;10.794;2023-11-19T03:05:48;95505.56;;;7.87;100.00
10978;BME280;5542;48.272;10.794;2023-11-19T03:08:15;95500.25;;;7.75;100.00
10978;BME280;5542;48.272;10.794;2023-11-19T03:10:41;95502.63;;;7.77;100.00
10978;BME280;5542;48.272;10.794;2023-11-19T03:13:11;95508.28;;;7.74;100.00
10978;BME280;5542;48.272;10.794;2023-11-19T03:15:38;95503.44;;;7.77;100.00
10978;BME280;5542;48.272;10.794;2023-11-19T03:18:04;95508.13;;;7.68;100.00
10978;BME280;5542;48.272;10.794;2023-11-19T03:20:32;95501.84;;;7.76;100.00
10978;BME280;5542;48.272;10.794;2023-11-19T03:22:59;95502.22;;;7.80;100.00
10978;BME280;5542;48.272;10.794;2023-11-19T03:25:26;95494.88;;;7.88;100.00
10978;BME280;5542;48.272;10.794;2023-11-19T03:27:58;95498.66;;;7.92;100.00
10978;BME280;5542;48.272;10.794;2023-11-19T03:30:25;95505.13;;;7.90;100.00
10978;BME280;5542;48.272;10.794;2023-11-19T03:32:51;95493.00;;;7.95;100.00
10978;BME280;5542;48.272;10.794;2023-11-19T03:35:18;95501.78;;;8.01;100.00
10978;BME280;5542;48.272;10.794;2023-11-19T03:37:45;95497.28;;;7.90;100.00
10978;BME280;5542;48.272;10.794;2023-11-19T03:40:13;95503.38;;;8.02;100.00
10978;BME280;5542;48.272;10.794;2023-11-19T03:42:39;95503.38;;;8.02;100.00
10978;BME280;5542;48.272;10.794;2023-11-19T03:45:07;95504.13;;;7.91;100.00
10978;BME280;5542;48.272;10.794;2023-11-19T03:47:33;95505.06;;;8.15;100.00
10978;BME280;5542;48.272;10.794;2023-11-19T03:50:00;95508.44;;;8.04;100.00
10978;BME280;5542;48.272;10.794;2023-11-19T03:52:28;95503.03;;;7.99;100.00
10978;BME280;5542;48.272;10.794;2023-11-19T03:54:56;95514.75;;;8.14;100.00
10978;BME280;5542;48.272;10.794;2023-11-19T03:57:23;95509.25;;;8.23;100.00
10978;BME280;5542;48.272;10.794;2023-11-19T03:59:50;95508.28;;;8.17;100.00
10978;BME280;5542;48.272;10.794;2023-11-19T04:02:16;95516.50;;;8.20;100.00
10978;BME280;5542;48.272;10.794;2023-11-19T04:04:43;95516.19;;;8.10;100.00
10978;BME280;5542;48.272;10.794;2023-11-19T04:07:09;95517.91;;;8.23;100.00
10978;BME280;5542;48.272;10.794;2023-11-19T04:09:36;95520.66;;;8.10;100.00
10978;BME280;5542;48.272;10.794;2023-11-19T04:12:05;95514.09;;;8.19;100.00
10978;BME280;5542;48.272;10.794;2023-11-19T04:14:32;95507.69;;;8.15;100.00
10978;BME280;5542;48.272;10.794;2023-11-19T04:16:58;95512.78;;;8.28;100.00
10978;BME280;5542;48.272;10.794;2023-11-19T04:19:25;95521.09;;;8.25;100.00
10978;BME280;5542;48.272;10.794;2023-11-19T04:21:51;95517.28;;;8.21;100.00
10978;BME280;5542;48.272;10.794;2023-11-19T04:24:18;95524.44;;;8.32;100.00
10978;BME280;5542;48.272;10.794;2023-11-19T04:26:45;95524.00;;;8.35;100.00
10978;BME280;5542;48.272;10.794;2023-11-19T04:29:14;95521.59;;;8.34;100.00
10978;BME280;5542;48.272;10.794;2023-11-19T04:31:42;95522.00;;;8.37;100.00
10978;BME280;5542;48.272;10.794;2023-11-19T04:34:09;95528.38;;;8.23;100.00
10978;BME280;5542;48.272;10.794;2023-11-19T04:36:36;95515.16;;;8.36;100.00
10978;BME280;5542;48.272;10.794;2023-11-19T04:39:04;95520.31;;;8.43;100.00
10978;BME280;5542;48.272;10.794;2023-11-19T04:41:34;95513.47;;;8.42;100.00
10978;BME280;5542;48.272;10.794;2023-11-19T04:44:01;95530.06;;;8.36;100.00
10978;BME280;5542;48.272;10.794;2023-11-19T04:46:29;95530.47;;;8.33;100.00
10978;BME280;5542;48.272;10.794;2023-11-19T04:48:56;95525.00;;;8.41;100.00
10978;BME280;5542;48.272;10.794;2023-11-19T04:51:23;95531.81;;;8.42;100.00
10978;BME280;5542;48.272;10.794;2023-11-19T04:53:49;95529.84;;;8.56;100.00
10978;BME280;5542;48.272;10.794;2023-11-19T04:56:16;95533.91;;;8.33;100.00
10978;BME280;5542;48.272;10.794;2023-11-19T04:58:45;95521.56;;;8.40;100.00
10978;BME280;5542;48.272;10.794;2023-11-19T05:01:13;95516.34;;;8.40;100.00
10978;BME280;5542;48.272;10.794;2023-11-19T05:03:43;95522.72;;;8.44;100.00
10978;BME280;5542;48.272;10.794;2023-11-19T05:06:10;95519.38;;;8.56;100.00
10978;BME280;5542;48.272;10.794;2023-11-19T05:08:37;95536.84;;;8.43;100.00
10978;BME280;5542;48.272;10.794;2023-11-19T05:11:04;95534.06;;;8.57;100.00
10978;BME280;5542;48.272;10.794;2023-11-19T05:13:31;95529.84;;;8.56;100.00
10978;BME280;5542;48.272;10.794;2023-11-19T05:15:57;95535.38;;;8.66;100.00
10978;BME280;5542;48.272;10.794;2023-11-19T05:18:24;95541.28;;;8.61;100.00
10978;BME280;5542;48.272;10.794;2023-11-19T05:20:51;95547.75;;;8.59;100.00
10978;BME280;5542;48.272;10.794;2023-11-19T05:23:18;95540.47;;;8.61;100.00
10978;BME280;5542;48.272;10.794;2023-11-19T05:25:45;95551.19;;;8.59;100.00
10978;BME280;5542;48.272;10.794;2023-11-19T05:28:12;95538.44;;;8.63;100.00
10978;BME280;5542;48.272;10.794;2023-11-19T05:30:39;95533.03;;;8.58;100.00
10978;BME280;5542;48.272;10.794;2023-11-19T05:33:06;95538.00;;;8.48;100.00
10978;BME280;5542;48.272;10.794;2023-11-19T05:35:34;95518.88;;;8.47;100.00
10978;BME280;5542;48.272;10.794;2023-11-19T05:38:02;95519.88;;;8.46;100.00
10978;BME280;5542;48.272;10.794;2023-11-19T05:40:28;95521.53;;;8.59;100.00
10978;BME280;5542;48.272;10.794;2023-11-19T05:42:55;95516.16;;;8.54;100.00
10978;BME280;5542;48.272;10.794;2023-11-19T05:45:21;95510.06;;;8.60;100.00
10978;BME280;5542;48.272;10.794;2023-11-19T05:47:48;95531.88;;;8.54;100.00
10978;BME280;5542;48.272;10.794;2023-11-19T05:50:14;95526.44;;;8.55;100.00
10978;BME280;5542;48.272;10.794;2023-11-19T05:52:41;95527.50;;;8.66;100.00
10978;BME280;5542;48.272;10.794;2023-11-19T05:55:09;95521.66;;;8.64;100.00
10978;BME280;5542;48.272;10.794;2023-11-19T05:57:36;95515.06;;;8.61;100.00
10978;BME280;5542;48.272;10.794;2023-11-19T06:00:03;95522.63;;;8.69;100.00
10978;BME280;5542;48.272;10.794;2023-11-19T06:02:32;95540.19;;;8.69;100.00
10978;BME280;5542;48.272;10.794;2023-11-19T06:04:58;95544.91;;;8.79;100.00
10978;BME280;5542;48.272;10.794;2023-11-19T06:07:25;95529.59;;;8.76;100.00
10978;BME280;5542;48.272;10.794;2023-11-19T06:09:51;95530.50;;;8.69;100.00
10978;BME280;5542;48.272;10.794;2023-11-19T06:12:19;95533.59;;;8.78;100.00
10978;BME280;5542;48.272;10.794;2023-11-19T06:14:46;95526.97;;;8.76;100.00
10978;BME280;5542;48.272;10.794;2023-11-19T06:17:13;95530.31;;;8.83;100.00
10978;BME280;5542;48.272;10.794;2023-11-19T06:19:39;95534.75;;;8.82;100.00
10978;BME280;5542;48.272;10.794;2023-11-19T06:22:06;95519.63;;;8.84;100.00
10978;BME280;5542;48.272;10.794;2023-11-19T06:24:32;95511.75;;;8.84;100.00
10978;BME280;5542;48.272;10.794;2023-11-19T06:26:59;95515.84;;;8.80;100.00
10978;BME280;5542;48.272;10.794;2023-11-19T06:29:27;95525.22;;;8.88;100.00
10978;BME280;5542;48.272;10.794;2023-11-19T06:31:53;95522.94;;;8.91;100.00
10978;BME280;5542;48.272;10.794;2023-11-19T06:34:19;95533.00;;;8.94;100.00
10978;BME280;5542;48.272;10.794;2023-11-19T06:36:46;95538.84;;;8.78;100.00
10978;BME280;5542;48.272;10.794;2023-11-19T06:39:13;95535.50;;;9.01;100.00
10978;BME280;5542;48.272;10.794;2023-11-19T06:41:44;95533.13;;;9.00;100.00
10978;BME280;5542;48.272;10.794;2023-11-19T06:44:11;95539.41;;;8.98;100.00
10978;BME280;5542;48.272;10.794;2023-11-19T06:46:39;95540.19;;;8.99;100.00
10978;BME280;5542;48.272;10.794;2023-11-19T06:49:06;95530.69;;;9.16;100.00
10978;BME280;5542;48.272;10.794;2023-11-19T06:51:33;95540.03;;;9.12;100.00
10978;BME280;5542;48.272;10.794;2023-11-19T06:54:00;95542.31;;;9.20;100.00
10978;BME280;5542;48.272;10.794;2023-11-19T06:56:26;95544.25;;;9.25;100.00
10978;BME280;5542;48.272;10.794;2023-11-19T06:58:53;95548.16;;;9.22;100.00
10978;BME280;5542;48.272;10.794;2023-11-19T07:01:19;95548.03;;;9.29;100.00
10978;BME280;5542;48.272;10.794;2023-11-19T07:03:47;95554.06;;;9.18;100.00
10978;BME280;5542;48.272;10.794;2023-11-19T07:06:14;95554.75;;;9.25;100.00
10978;BME280;5542;48.272;10.794;2023-11-19T07:08:41;95556.72;;;9.30;100.00
10978;BME280;5542;48.272;10.794;2023-11-19T07:11:07;95545.09;;;9.37;100.00
10978;BME280;5542;48.272;10.794;2023-11-19T07:13:35;95545.09;;;9.37;100.00
10978;BME280;5542;48.272;10.794;2023-11-19T07:16:01;95556.28;;;9.33;100.00
10978;BME280;5542;48.272;10.794;2023-11-19T07:18:28;95560.72;;;9.32;100.00
10978;BME280;5542;48.272;10.794;2023-11-19T07:20:58;95559.94;;;9.32;100.00
10978;BME280;5542;48.272;10.794;2023-11-19T07:23:25;95560.53;;;9.45;100.00
10978;BME280;5542;48.272;10.794;2023-11-19T07:25:51;95573.66;;;9.45;100.00
10978;BME280;5542;48.272;10.794;2023-11-19T07:28:18;95571.72;;;9.53;100.00
10978;BME280;5542;48.272;10.794;2023-11-19T07:30:45;95578.31;;;9.43;100.00
10978;BME280;5542;48.272;10.794;2023-11-19T07:33:11;95580.44;;;9.65;100.00
10978;BME280;5542;48.272;10.794;2023-11-19T07:35:38;95582.59;;;9.68;100.00
10978;BME280;5542;48.272;10.794;2023-11-19T07:38:07;95574.16;;;9.78;100.00
10978;BME280;5542;48.272;10.794;2023-11-19T07:40:34;95577.75;;;9.83;100.00
10978;BME280;5542;48.272;10.794;2023-11-19T07:43:00;95584.78;;;9.71;100.00
10978;BME280;5542;48.272;10.794;2023-11-19T07:45:27;95572.69;;;9.70;100.00
10978;BME280;5542;48.272;10.794;2023-11-19T07:47:53;95576.22;;;9.64;100.00
10978;BME280;5542;48.272;10.794;2023-11-19T07:50:20;95584.34;;;9.86;100.00
10978;BME280;5542;48.272;10.794;2023-11-19T07:52:47;95584.22;;;9.81;100.00
10978;BME280;5542;48.272;10.794;2023-11-19T07:55:15;95592.59;;;9.89;100.00
10978;BME280;5542;48.272;10.794;2023-11-19T07:57:41;95582.06;;;9.89;100.00
10978;BME280;5542;48.272;10.794;2023-11-19T08:00:08;95579.22;;;9.91;100.00
10978;BME280;5542;48.272;10.794;2023-11-19T08:02:37;95587.78;;;9.86;100.00
10978;BME280;5542;48.272;10.794;2023-11-19T08:05:04;95589.59;;;9.86;100.00
10978;BME280;5542;48.272;10.794;2023-11-19T08:07:31;95590.50;;;9.91;100.00
10978;BME280;5542;48.272;10.794;2023-11-19T08:09:57;95589.50;;;9.92;100.00
10978;BME280;5542;48.272;10.794;2023-11-19T08:12:26;95587.44;;;9.94;100.00
10978;BME280;5542;48.272;10.794;2023-11-19T08:14:53;95595.00;;;10.03;100.00
10978;BME280;5542;48.272;10.794;2023-11-19T08:17:19;95598.19;;;9.93;100.00
10978;BME280;5542;48.272;10.794;2023-11-19T08:19:48;95604.81;;;9.95;100.00
10978;BME280;5542;48.272;10.794;2023-11-19T08:22:14;95600.84;;;10.16;100.00
10978;BME280;5542;48.272;10.794;2023-11-19T08:24:41;95602.75;;;10.09;100.00
10978;BME280;5542;48.272;10.794;2023-11-19T08:27:08;95599.56;;;10.19;100.00
10978;BME280;5542;48.272;10.794;2023-11-19T08:29:36;95590.66;;;10.08;100.00
10978;BME280;5542;48.272;10.794;2023-11-19T08:32:05;95585.88;;;10.17;100.00
10978;BME280;5542;48.272;10.794;2023-11-19T08:34:32;95586.66;;;10.17;100.00
10978;BME280;5542;48.272;10.794;2023-11-19T08:36:59;95584.53;;;10.26;100.00
10978;BME280;5542;48.272;10.794;2023-11-19T08:39:25;95590.22;;;10.35;100.00
10978;BME280;5542;48.272;10.794;2023-11-19T08:41:52;95589.91;;;10.31;100.00
10978;BME280;5542;48.272;10.794;2023-11-19T08:44:18;95598.94;;;10.35;100.00
10978;BME280;5542;48.272;10.794;2023-11-19T08:46:49;95598.00;;;10.30;100.00
10978;BME280;5542;48.272;10.794;2023-11-19T08:49:16;95587.47;;;10.30;100.00
10978;BME280;5542;48.272;10.794;2023-11-19T08:51:43;95599.03;;;10.40;100.00
10978;BME280;5542;48.272;10.794;2023-11-19T08:54:09;95597.75;;;10.43;100.00
10978;BME280;5542;48.272;10.794;2023-11-19T08:56:36;95599.03;;;10.40;100.00
10978;BME280;5542;48.272;10.794;2023-11-19T08:59:04;95595.81;;;10.38;100.00
10978;BME280;5542;48.272;10.794;2023-11-19T09:01:31;95587.59;;;10.46;100.00
10978;BME280;5542;48.272;10.794;2023-11-19T09:03:58;95593.19;;;10.50;100.00
10978;BME280;5542;48.272;10.794;2023-11-19T09:06:25;95592.25;;;10.56;100.00
10978;BME280;5542;48.272;10.794;2023-11-19T09:08:52;95599.25;;;10.50;100.00
10978;BME280;5542;48.272;10.794;2023-11-19T09:11:19;95596.50;;;10.57;100.00
10978;BME280;5542;48.272;10.794;2023-11-19T09:13:45;95605.28;;;10.63;100.00
10978;BME280;5542;48.272;10.794;2023-11-19T09:16:12;95595.78;;;10.62;100.00
10978;BME280;5542;48.272;10.794;2023-11-19T09:18:38;95601.25;;;10.84;100.00
10978;BME280;5542;48.272;10.794;2023-11-19T09:21:07;95609.94;;;10.84;100.00
10978;BME280;5542;48.272;10.794;2023-11-19T09:23:34;95601.13;;;10.90;100.00
10978;BME280;5542;48.272;10.794;2023-11-19T09:26:04;95602.16;;;10.89;100.00
10978;BME280;5542;48.272;10.794;2023-11-19T09:28:31;95598.69;;;11.00;100.00
10978;BME280;5542;48.272;10.794;2023-11-19T09:30:58;95595.75;;;10.97;100.00
10978;BME280;5542;48.272;10.794;2023-11-19T09:33:25;95601.41;;;11.06;100.00
10978;BME280;5542;48.272;10.794;2023-11-19T09:35:51;95601.41;;;11.06;100.00
10978;BME280;5542;48.272;10.794;2023-11-19T09:38:19;95595.06;;;11.18;100.00
10978;BME280;5542;48.272;10.794;2023-11-19T09:40:46;95594.28;;;11.18;100.00
10978;BME280;5542;48.272;10.794;2023-11-19T09:43:13;95582.97;;;11.17;100.00
10978;BME280;5542;48.272;10.794;2023-11-19T09:45:48;95583.28;;;11.21;100.00
10978;BME280;5542;48.272;10.794;2023-11-19T09:48:16;95579.97;;;11.25;100.00
10978;BME280;5542;48.272;10.794;2023-11-19T09:50:43;95574.53;;;11.32;100.00
10978;BME280;5542;48.272;10.794;2023-11-19T09:53:10;95573.03;;;11.36;100.00
10978;BME280;5542;48.272;10.794;2023-11-19T09:55:38;95586.03;;;11.43;100.00
10978;BME280;5542;48.272;10.794;2023-11-19T09:58:05;95568.28;;;11.50;100.00
10978;BME280;5542;48.272;10.794;2023-11-19T10:00:33;95554.94;;;11.57;100.00
10978;BME280;5542;48.272;10.794;2023-11-19T10:03:00;95549.22;;;11.60;100.00
10978;BME280;5542;48.272;10.794;2023-11-19T10:05:26;95551.75;;;11.54;100.00
10978;BME280;5542;48.272;10.794;2023-11-19T10:07:53;95566.28;;;11.57;100.00
10978;BME280;5542;48.272;10.794;2023-11-19T10:10:20;95550.00;;;11.60;100.00
10978;BME280;5542;48.272;10.794;2023-11-19T10:12:50;95551.13;;;11.64;100.00
10978;BME280;5542;48.272;10.794;2023-11-19T10:15:20;95561.34;;;11.61;100.00
10978;BME280;5542;48.272;10.794;2023-11-19T10:17:47;95556.06;;;11.61;100.00
10978;BME280;5542;48.272;10.794;2023-11-19T10:20:13;95558.63;;;11.72;100.00
10978;BME280;5542;48.272;10.794;2023-11-19T10:22:40;95550.41;;;11.69;100.00
10978;BME280;5542;48.272;10.794;2023-11-19T10:25:21;95542.72;;;11.67;100.00
10978;BME280;5542;48.272;10.794;2023-11-19T10:27:49;95558.53;;;11.67;100.00
10978;BME280;5542;48.272;10.794;2023-11-19T10:30:17;95551.47;;;11.85;100.00
10978;BME280;5542;48.272;10.794;2023-11-19T10:32:44;95546.19;;;12.01;100.00
10978;BME280;5542;48.272;10.794;2023-11-19T10:35:11;95553.53;;;11.99;100.00
10978;BME280;5542;48.272;10.794;2023-11-19T10:37:38;95545.56;;;12.11;100.00
10978;BME280;5542;48.272;10.794;2023-11-19T10:40:07;95553.53;;;12.16;100.00
10978;BME280;5542;48.272;10.794;2023-11-19T10:42:35;95541.69;;;12.19;100.00
10978;BME280;5542;48.272;10.794;2023-11-19T10:45:04;95540.50;;;12.10;99.38
10978;BME280;5542;48.272;10.794;2023-11-19T10:47:31;95540.75;;;12.08;100.00
10978;BME280;5542;48.272;10.794;2023-11-19T10:49:59;95535.16;;;12.04;100.00
10978;BME280;5542;48.272;10.794;2023-11-19T10:52:27;95534.13;;;12.05;100.00
10978;BME280;5542;48.272;10.794;2023-11-19T10:54:54;95530.03;;;12.15;100.00
10978;BME280;5542;48.272;10.794;2023-11-19T10:57:25;95539.56;;;12.16;99.71
10978;BME280;5542;48.272;10.794;2023-11-19T10:59:55;95526.91;;;12.18;99.80
10978;BME280;5542;48.272;10.794;2023-11-19T11:02:29;95533.44;;;12.32;99.32
10978;BME280;5542;48.272;10.794;2023-11-19T11:05:01;95526.31;;;12.33;100.00
10978;BME280;5542;48.272;10.794;2023-11-19T11:07:30;95519.41;;;12.48;98.35
10978;BME280;5542;48.272;10.794;2023-11-19T11:09:57;95514.69;;;12.50;97.25
10978;BME280;5542;48.272;10.794;2023-11-19T11:12:25;95517.00;;;12.47;97.09
10978;BME280;5542;48.272;10.794;2023-11-19T11:14:53;95519.09;;;12.45;96.29
10978;BME280;5542;48.272;10.794;2023-11-19T11:17:24;95502.56;;;12.49;97.17
10978;BME280;5542;48.272;10.794;2023-11-19T11:19:53;95511.38;;;12.60;95.21
10978;BME280;5542;48.272;10.794;2023-11-19T11:22:21;95522.66;;;12.55;94.90
10978;BME280;5542;48.272;10.794;2023-11-19T11:28:09;95513.97;;;12.55;96.99
10978;BME280;5542;48.272;10.794;2023-11-19T11:30:49;95509.13;;;12.69;94.76
10978;BME280;5542;48.272;10.794;2023-11-19T11:33:36;95498.19;;;12.82;93.64
10978;BME280;5542;48.272;10.794;2023-11-19T11:36:15;95503.47;;;12.82;93.31
10978;BME280;5542;48.272;10.794;2023-11-19T11:38:48;95493.13;;;12.80;93.09
10978;BME280;5542;48.272;10.794;2023-11-19T11:41:15;95490.50;;;12.80;92.58
10978;BME280;5542;48.272;10.794;2023-11-19T11:43:45;95497.63;;;12.80;93.30
10978;BME280;5542;48.272;10.794;2023-11-19T11:49:15;95495.19;;;13.00;90.15
10978;BME280;5542;48.272;10.794;2023-11-19T11:51:59;95504.88;;;13.17;89.25
10978;BME280;5542;48.272;10.794;2023-11-19T11:54:26;95510.16;;;13.17;87.79
10978;BME280;5542;48.272;10.794;2023-11-19T11:57:03;95509.16;;;13.23;87.99
10978;BME280;5542;48.272;10.794;2023-11-19T11:59:37;95505.34;;;13.36;88.48
10978;BME280;5542;48.272;10.794;2023-11-19T12:02:04;95497.59;;;13.29;87.71
10978;BME280;5542;48.272;10.794;2023-11-19T12:04:31;95486.84;;;13.36;89.27
10978;BME280;5542;48.272;10.794;2023-11-19T12:07:06;95498.69;;;13.33;87.67
10978;BME280;5542;48.272;10.794;2023-11-19T12:09:33;95489.53;;;13.41;86.53
10978;BME280;5542;48.272;10.794;2023-11-19T12:12:17;95494.03;;;13.40;87.56
10978;BME280;5542;48.272;10.794;2023-11-19T12:15:01;95492.31;;;13.29;86.81
10978;BME280;5542;48.272;10.794;2023-11-19T12:17:37;95478.59;;;13.27;87.63
10978;BME280;5542;48.272;10.794;2023-11-19T12:20:06;95483.25;;;13.20;87.85
10978;BME280;5542;48.272;10.794;2023-11-19T12:22:35;95482.09;;;13.38;87.91
10978;BME280;5542;48.272;10.794;2023-11-19T12:25:04;95484.47;;;13.34;86.54
10978;BME280;5542;48.272;10.794;2023-11-19T12:27:31;95480.78;;;13.35;87.62
10978;BME280;5542;48.272;10.794;2023-11-19T12:29:59;95492.28;;;13.56;85.52
10978;BME280;5542;48.272;10.794;2023-11-19T12:32:25;95485.16;;;13.56;84.58
10978;BME280;5542;48.272;10.794;2023-11-19T12:34:52;95505.47;;;13.51;85.68
10978;BME280;5542;48.272;10.794;2023-11-19T12:37:18;95498.19;;;13.63;85.57
10978;BME280;5542;48.272;10.794;2023-11-19T12:39:46;95494.25;;;13.71;84.95
10978;BME280;5542;48.272;10.794;2023-11-19T12:42:13;95486.59;;;13.69;82.69
10978;BME280;5542;48.272;10.794;2023-11-19T12:44:39;95486.84;;;13.68;84.19
10978;BME280;5542;48.272;10.794;2023-11-19T12:47:17;95494.25;;;13.71;82.72
10978;BME280;5542;48.272;10.794;2023-11-19T12:49:44;95493.81;;;13.47;84.92
10978;BME280;5542;48.272;10.794;2023-11-19T12:52:21;95482.19;;;13.48;84.90
10978;BME280;5542;48.272;10.794;2023-11-19T12:54:50;95476.66;;;13.49;85.19
10978;BME280;5542;48.272;10.794;2023-11-19T12:57:16;95465.25;;;13.44;85.06
10978;BME280;5542;48.272;10.794;2023-11-19T12:59:54;95463.06;;;13.36;85.45
10978;BME280;5542;48.272;10.794;2023-11-19T13:02:20;95470.53;;;13.17;86.84
10978;BME280;5542;48.272;10.794;2023-11-19T13:04:47;95451.31;;;13.21;87.26
10978;BME280;5542;48.272;10.794;2023-11-19T13:07:13;95452.84;;;13.17;87.72